createdAt,value
2018-02-10T00:00:22.103Z,90.34
2018-02-10T00:02:47.850Z,90.31
2018-02-10T00:05:13.611Z,89.72
2018-02-10T00:07:39.367Z,89.76
2018-02-10T00:10:05.114Z,89.53
2018-02-10T00:12:30.874Z,89.26
2018-02-10T00:14:56.621Z,89.24
2018-02-10T00:17:22.436Z,90.08
2018-02-10T00:19:48.191Z,89.28
2018-02-10T00:22:26.442Z,88.95
2018-02-10T00:24:52.183Z,88.66
2018-02-10T00:27:17.929Z,89.17
2018-02-10T00:29:43.690Z,88.77
2018-02-10T00:32:09.441Z,88.86
2018-02-10T00:34:35.190Z,89.05
2018-02-10T00:37:00.974Z,89.06
2018-02-10T00:39:26.702Z,90.21
2018-02-10T00:41:52.456Z,90.38
2018-02-10T00:44:18.218Z,90.72
2018-02-10T00:46:43.971Z,90.24
2018-02-10T00:49:11.106Z,89.08
2018-02-10T00:51:36.910Z,91.03
2018-02-10T00:54:02.689Z,89.56
2018-02-10T00:56:28.437Z,90.13
2018-02-10T00:58:54.219Z,90.74
2018-02-10T01:01:19.988Z,89.13
2018-02-10T01:03:45.746Z,89.30
2018-02-10T01:06:11.499Z,89.86
2018-02-10T01:08:37.267Z,89.85
2018-02-10T01:11:03.018Z,89.82
2018-02-10T01:13:28.806Z,89.41
2018-02-10T01:15:54.559Z,89.62
2018-02-10T01:18:20.320Z,88.79
2018-02-10T01:20:46.067Z,88.96
2018-02-10T01:23:11.833Z,88.82
2018-02-10T01:25:37.586Z,89.36
2018-02-10T01:28:03.383Z,89.42
2018-02-10T01:30:29.130Z,89.60
2018-02-10T01:32:54.882Z,89.28
2018-02-10T01:35:20.635Z,88.96
2018-02-10T01:37:46.394Z,89.22
2018-02-10T01:40:12.167Z,89.75
2018-02-10T01:42:37.917Z,90.15
2018-02-10T01:45:03.694Z,90.93
2018-02-10T01:47:30.335Z,91.01
2018-02-10T01:50:08.590Z,91.64
2018-02-10T01:52:34.350Z,90.36
2018-02-10T01:55:00.107Z,91.01
2018-02-10T01:57:25.859Z,90.60
2018-02-10T01:59:51.614Z,90.41
2018-02-10T02:02:17.367Z,90.47
2018-02-10T02:04:43.125Z,90.60
2018-02-10T02:07:08.883Z,90.49
2018-02-10T02:09:34.645Z,89.51
2018-02-10T02:12:00.394Z,89.74
2018-02-10T02:14:26.162Z,90.06
2018-02-10T02:16:51.902Z,90.59
2018-02-10T02:19:17.690Z,90.46
2018-02-10T02:21:43.448Z,89.49
2018-02-10T02:24:09.198Z,89.64
2018-02-10T02:26:34.964Z,89.62
2018-02-10T02:29:00.730Z,91.06
2018-02-10T02:31:26.496Z,90.24
2018-02-10T02:33:52.259Z,91.84
2018-02-10T02:36:18.033Z,91.40
2018-02-10T02:38:43.824Z,90.89
2018-02-10T02:41:09.610Z,91.29
2018-02-10T02:43:35.364Z,89.48
2018-02-10T02:46:01.136Z,92.52
2018-02-10T02:48:26.874Z,90.65
2018-02-10T02:50:52.655Z,90.00
2018-02-10T02:53:18.416Z,91.59
2018-02-10T02:55:44.198Z,90.92
2018-02-10T02:58:09.939Z,90.44
2018-02-10T03:00:35.710Z,89.82
2018-02-10T03:03:01.454Z,89.61
2018-02-10T03:05:27.211Z,88.85
2018-02-10T03:07:52.980Z,91.03
2018-02-10T03:10:18.730Z,92.48
2018-02-10T03:12:44.498Z,91.14
2018-02-10T03:15:10.230Z,90.45
2018-02-10T03:17:35.982Z,89.99
2018-02-10T03:20:01.738Z,90.71
2018-02-10T03:22:27.501Z,91.14
2018-02-10T03:24:53.238Z,91.03
2018-02-10T03:27:19.014Z,91.69
2018-02-10T03:29:44.759Z,92.52
2018-02-10T03:32:10.510Z,92.11
2018-02-10T03:34:36.258Z,92.70
2018-02-10T03:37:02.030Z,92.56
2018-02-10T03:39:27.774Z,91.87
2018-02-10T03:41:53.570Z,92.67
2018-02-10T03:44:19.350Z,92.52
2018-02-10T03:46:45.090Z,91.73
2018-02-10T03:49:10.846Z,92.02
2018-02-10T03:51:36.618Z,91.84
2018-02-10T03:54:02.371Z,91.27
2018-02-10T03:56:28.146Z,91.34
2018-02-10T03:58:53.990Z,90.43
2018-02-10T04:01:19.733Z,89.94
2018-02-10T04:03:45.503Z,91.06
2018-02-10T04:06:11.250Z,91.38
2018-02-10T04:08:37.030Z,92.45
2018-02-10T04:11:02.774Z,92.21
2018-02-10T04:13:28.552Z,91.14
2018-02-10T04:15:54.311Z,92.25
2018-02-10T04:18:20.070Z,91.74
2018-02-10T04:20:45.826Z,91.79
2018-02-10T04:23:11.586Z,90.83
2018-02-10T04:25:37.350Z,90.74
2018-02-10T04:28:03.110Z,91.17
2018-02-10T04:30:28.855Z,91.37
2018-02-10T04:32:54.614Z,90.68
2018-02-10T04:35:20.361Z,91.26
2018-02-10T04:37:46.130Z,92.03
2018-02-10T04:40:11.883Z,92.63
2018-02-10T04:42:37.646Z,93.53
2018-02-10T04:45:03.413Z,92.49
2018-02-10T04:47:29.162Z,89.33
2018-02-10T04:49:54.910Z,90.44
2018-02-10T04:52:20.662Z,90.17
2018-02-10T04:54:46.431Z,90.62
2018-02-10T04:57:12.185Z,89.59
2018-02-10T04:59:37.947Z,88.44
2018-02-10T05:02:03.686Z,88.44
2018-02-10T05:04:29.438Z,89.07
2018-02-10T05:06:55.182Z,88.97
2018-02-10T05:09:20.935Z,89.82
2018-02-10T05:11:46.678Z,89.35
2018-02-10T05:14:12.435Z,88.71
2018-02-10T05:16:38.187Z,89.18
2018-02-10T05:19:03.962Z,89.59
2018-02-10T05:21:29.694Z,90.41
2018-02-10T05:23:55.441Z,89.76
2018-02-10T05:26:21.211Z,90.79
2018-02-10T05:28:46.954Z,90.16
2018-02-10T05:31:12.698Z,90.47
2018-02-10T05:33:38.448Z,89.86
2018-02-10T05:36:04.197Z,88.95
2018-02-10T05:38:29.929Z,89.62
2018-02-10T05:40:55.661Z,89.53
2018-02-10T05:43:21.404Z,90.48
2018-02-10T05:45:47.158Z,90.38
2018-02-10T05:48:12.918Z,87.99
2018-02-10T05:50:38.667Z,89.38
2018-02-10T05:53:04.430Z,89.69
2018-02-10T05:55:30.189Z,90.21
2018-02-10T05:57:55.930Z,90.24
2018-02-10T06:00:21.705Z,89.38
2018-02-10T06:02:47.455Z,87.39
2018-02-10T06:05:13.210Z,88.52
2018-02-10T06:07:38.970Z,89.08
2018-02-10T06:10:04.706Z,87.01
2018-02-10T06:12:30.479Z,87.65
2018-02-10T06:14:56.210Z,87.44
2018-02-10T06:17:21.978Z,86.93
2018-02-10T06:19:47.722Z,87.82
2018-02-10T06:22:13.494Z,88.47
2018-02-10T06:24:39.238Z,87.60
2018-02-10T06:27:04.988Z,88.08
2018-02-10T06:29:30.732Z,88.04
2018-02-10T06:31:56.478Z,87.40
2018-02-10T06:34:22.218Z,88.00
2018-02-10T06:36:47.966Z,89.05
2018-02-10T06:39:13.712Z,90.16
2018-02-10T06:41:39.470Z,91.89
2018-02-10T06:44:05.210Z,92.02
2018-02-10T06:46:30.972Z,92.03
2018-02-10T06:48:56.711Z,91.78
2018-02-10T06:51:22.474Z,92.29
2018-02-10T06:53:48.217Z,91.99
2018-02-10T06:56:13.983Z,91.15
2018-02-10T06:58:39.718Z,90.17
2018-02-10T07:01:05.454Z,89.65
2018-02-10T07:03:31.215Z,89.42
2018-02-10T07:05:56.946Z,89.97
2018-02-10T07:08:22.702Z,90.50
2018-02-10T07:10:48.450Z,90.44
2018-02-10T07:13:14.212Z,89.70
2018-02-10T07:15:39.959Z,89.71
2018-02-10T07:18:05.702Z,89.45
2018-02-10T07:20:31.454Z,89.80
2018-02-10T07:22:57.206Z,89.45
2018-02-10T07:25:22.957Z,89.47
2018-02-10T07:27:48.723Z,91.38
2018-02-10T07:30:14.477Z,91.76
2018-02-10T07:32:40.222Z,92.27
2018-02-10T07:35:05.978Z,91.98
2018-02-10T07:37:31.731Z,91.80
2018-02-10T07:39:57.489Z,91.50
2018-02-10T07:42:23.398Z,91.09
2018-02-10T07:44:49.143Z,90.45
2018-02-10T07:47:14.899Z,89.99
2018-02-10T07:49:40.642Z,90.93
2018-02-10T07:52:06.402Z,92.08
2018-02-10T07:54:32.158Z,92.13
2018-02-10T07:56:57.893Z,92.25
2018-02-10T07:59:23.664Z,92.28
2018-02-10T08:01:50.131Z,92.04
2018-02-10T08:04:15.906Z,91.71
2018-02-10T08:06:41.667Z,91.71
2018-02-10T08:09:07.488Z,91.91
2018-02-10T08:11:34.390Z,91.25
2018-02-10T08:14:00.164Z,91.60
2018-02-10T08:16:25.919Z,91.89
2018-02-10T08:18:52.118Z,91.75
2018-02-10T08:21:17.899Z,91.57
2018-02-10T08:23:43.973Z,91.51
2018-02-10T08:26:09.747Z,91.21
2018-02-10T08:28:36.334Z,91.17
2018-02-10T08:31:02.222Z,91.04
2018-02-10T08:33:28.285Z,91.18
2018-02-10T08:35:54.332Z,90.64
2018-02-10T08:38:20.385Z,90.66
2018-02-10T08:40:46.136Z,90.54
2018-02-10T08:43:11.919Z,90.55
2018-02-10T08:45:37.655Z,90.78
2018-02-10T08:48:03.693Z,89.83
2018-02-10T08:50:29.458Z,90.07
2018-02-10T08:52:55.230Z,90.40
2018-02-10T08:55:21.036Z,91.08
2018-02-10T08:57:46.745Z,90.83
2018-02-10T09:00:12.498Z,90.85
2018-02-10T09:02:38.246Z,89.84
2018-02-10T09:05:04.074Z,90.03
2018-02-10T09:07:29.813Z,90.90
2018-02-10T09:09:55.626Z,91.39
2018-02-10T09:12:21.338Z,91.46
2018-02-10T09:14:47.109Z,90.59
2018-02-10T09:17:12.859Z,89.73
2018-02-10T09:19:38.622Z,89.83
2018-02-10T09:22:04.371Z,90.79
2018-02-10T09:24:30.181Z,91.08
2018-02-10T09:26:55.938Z,89.69
2018-02-10T09:29:21.698Z,90.11
2018-02-10T09:31:47.543Z,89.51
2018-02-10T09:34:13.273Z,89.71
2018-02-10T09:36:39.023Z,89.30
2018-02-10T09:39:04.786Z,88.92
2018-02-10T09:41:30.575Z,88.42
2018-02-10T09:43:56.318Z,88.26
2018-02-10T09:46:22.092Z,88.19
2018-02-10T09:48:47.845Z,88.33
2018-02-10T09:51:13.639Z,88.46
2018-02-10T09:53:40.314Z,87.69
2018-02-10T09:56:06.073Z,87.17
2018-02-10T09:58:31.834Z,87.21
2018-02-10T10:00:57.591Z,86.90
2018-02-10T10:03:23.346Z,86.42
2018-02-10T10:05:49.127Z,86.12
2018-02-10T10:08:27.963Z,86.22
2018-02-10T10:10:53.757Z,85.46
2018-02-10T10:13:19.513Z,85.38
2018-02-10T10:15:45.307Z,85.86
2018-02-10T10:18:11.059Z,84.77
2018-02-10T10:20:36.833Z,85.42
2018-02-10T10:23:02.578Z,85.61
2018-02-10T10:25:28.352Z,84.42
2018-02-10T10:27:54.102Z,84.49
2018-02-10T10:30:19.855Z,84.75
2018-02-10T10:32:45.606Z,83.63
2018-02-10T10:35:11.361Z,82.82
2018-02-10T10:37:37.124Z,83.86
2018-02-10T10:40:02.895Z,83.60
2018-02-10T10:42:28.746Z,83.48
2018-02-10T10:44:54.496Z,82.01
2018-02-10T10:47:20.258Z,82.06
2018-02-10T10:49:45.998Z,81.85
2018-02-10T10:52:11.795Z,80.92
2018-02-10T10:54:37.528Z,81.12
2018-02-10T10:57:03.305Z,81.00
2018-02-10T10:59:29.066Z,79.92
2018-02-10T11:01:54.831Z,77.37
2018-02-10T11:04:20.636Z,78.02
2018-02-10T11:06:46.345Z,77.57
2018-02-10T11:09:12.108Z,76.62
2018-02-10T11:11:37.868Z,77.10
2018-02-10T11:14:03.635Z,76.12
2018-02-10T11:16:29.455Z,77.39
2018-02-10T11:18:55.278Z,76.87
2018-02-10T11:21:21.141Z,75.77
2018-02-10T11:23:46.910Z,76.82
2018-02-10T11:26:12.690Z,75.65
2018-02-10T11:28:38.507Z,75.17
2018-02-10T11:31:04.268Z,74.90
2018-02-10T11:33:30.047Z,75.14
2018-02-10T11:35:55.802Z,74.87
2018-02-10T11:38:21.571Z,74.42
2018-02-10T11:40:47.336Z,73.70
2018-02-10T11:43:13.184Z,74.10
2018-02-10T11:45:38.939Z,73.68
2018-02-10T11:48:04.711Z,73.58
2018-02-10T11:50:30.470Z,73.92
2018-02-10T11:52:56.251Z,73.14
2018-02-10T11:55:22.068Z,74.09
2018-02-10T11:57:47.881Z,73.36
2018-02-10T12:00:13.639Z,73.10
2018-02-10T12:02:39.425Z,72.80
2018-02-10T12:05:05.183Z,74.12
2018-02-10T12:07:30.955Z,72.43
2018-02-10T12:09:56.719Z,73.26
2018-02-10T12:12:23.418Z,72.53
2018-02-10T12:14:49.317Z,73.94
2018-02-10T12:17:15.121Z,72.22
2018-02-10T12:19:42.304Z,71.78
2018-02-10T12:22:15.183Z,73.11
2018-02-10T12:24:41.077Z,72.98
2018-02-10T12:27:06.823Z,72.52
2018-02-10T12:29:32.585Z,72.10
2018-02-10T12:31:58.410Z,71.56
2018-02-10T12:34:25.407Z,70.94
2018-02-10T12:36:52.675Z,71.43
2018-02-10T12:39:18.487Z,70.95
2018-02-10T12:41:44.699Z,71.37
2018-02-10T12:44:10.457Z,72.25
2018-02-10T12:46:36.214Z,72.21
2018-02-10T12:52:01.942Z,71.85
2018-02-10T12:54:29.418Z,72.45
2018-02-10T12:56:56.476Z,72.93
2018-02-10T12:59:22.291Z,72.94
2018-02-10T13:01:49.418Z,71.80
2018-02-10T13:04:16.438Z,72.44
2018-02-10T13:06:43.430Z,72.01
2018-02-10T13:09:10.110Z,72.92
2018-02-10T13:11:36.671Z,71.45
2018-02-10T13:14:02.422Z,71.97
2018-02-10T13:16:28.195Z,71.81
2018-02-10T13:18:53.960Z,72.52
2018-02-10T13:21:19.723Z,71.24
2018-02-10T13:23:45.486Z,72.75
2018-02-10T13:26:11.261Z,72.72
2018-02-10T13:28:37.021Z,72.35
2018-02-10T13:31:02.811Z,72.61
2018-02-10T13:33:28.556Z,71.69
2018-02-10T13:35:54.315Z,72.08
2018-02-10T13:38:20.095Z,71.97
2018-02-10T13:40:45.931Z,72.35
2018-02-10T13:43:11.654Z,73.11
2018-02-10T13:45:37.407Z,73.13
2018-02-10T13:48:03.174Z,73.65
2018-02-10T13:50:28.919Z,73.87
2018-02-10T13:52:54.687Z,73.81
2018-02-10T13:55:20.446Z,73.72
2018-02-10T13:57:46.216Z,73.53
2018-02-10T14:00:12.020Z,73.31
2018-02-10T14:02:37.774Z,73.42
2018-02-10T14:05:03.540Z,72.99
2018-02-10T14:07:29.306Z,73.33
2018-02-10T14:09:55.214Z,72.85
2018-02-10T14:12:20.984Z,72.95
2018-02-10T14:14:46.753Z,73.06
2018-02-10T14:17:13.507Z,73.17
2018-02-10T14:19:39.260Z,73.35
2018-02-10T14:22:05.019Z,73.48
2018-02-10T14:24:30.794Z,73.37
2018-02-10T14:26:56.567Z,73.67
2018-02-10T14:29:22.337Z,73.43
2018-02-10T14:31:48.103Z,74.10
2018-02-10T14:34:13.866Z,73.87
2018-02-10T14:36:39.623Z,73.83
2018-02-10T14:39:05.416Z,74.07
2018-02-10T14:41:31.189Z,73.93
2018-02-10T14:43:57.007Z,73.96
2018-02-10T14:46:22.780Z,74.04
2018-02-10T14:48:48.546Z,74.48
2018-02-10T14:51:14.316Z,74.21
2018-02-10T14:53:40.093Z,74.29
2018-02-10T14:56:05.846Z,74.76
2018-02-10T14:58:31.623Z,74.79
2018-02-10T15:00:57.394Z,74.71
2018-02-10T15:03:23.161Z,74.43
2018-02-10T15:05:48.920Z,74.27
2018-02-10T15:08:14.690Z,74.32
2018-02-10T15:10:40.466Z,74.23
2018-02-10T15:13:06.243Z,75.17
2018-02-10T15:15:32.007Z,74.57
2018-02-10T15:17:57.774Z,74.91
2018-02-10T15:20:23.555Z,75.04
2018-02-10T15:22:49.353Z,74.64
2018-02-10T15:25:15.114Z,74.71
2018-02-10T15:27:40.858Z,74.92
2018-02-10T15:30:18.828Z,74.48
2018-02-10T15:35:49.458Z,75.49
2018-02-10T15:38:15.211Z,75.13
2018-02-10T15:40:40.983Z,75.27
2018-02-10T15:43:06.725Z,75.54
2018-02-10T15:45:32.482Z,75.63
2018-02-10T15:47:58.241Z,75.87
2018-02-10T15:50:24.015Z,76.04
2018-02-10T15:52:49.775Z,76.38
2018-02-10T15:55:15.546Z,76.32
2018-02-10T15:57:41.385Z,76.22
2018-02-10T16:00:07.158Z,76.60
2018-02-10T16:02:32.896Z,76.61
2018-02-10T16:04:58.658Z,76.43
2018-02-10T16:07:24.443Z,76.67
2018-02-10T16:09:50.186Z,76.49
2018-02-10T16:12:15.937Z,76.73
2018-02-10T16:14:41.698Z,76.75
2018-02-10T16:17:07.467Z,76.47
2018-02-10T16:19:33.214Z,76.90
2018-02-10T16:21:58.995Z,76.39
2018-02-10T16:24:24.741Z,76.73
2018-02-10T16:26:50.494Z,77.01
2018-02-10T16:29:16.234Z,76.96
2018-02-10T16:31:42.007Z,77.33
2018-02-10T16:34:07.749Z,77.20
2018-02-10T16:36:40.536Z,77.20
2018-02-10T16:39:06.406Z,77.08
2018-02-10T16:41:32.187Z,77.13
2018-02-10T16:43:57.941Z,77.34
2018-02-10T16:46:23.730Z,77.47
2018-02-10T16:48:50.217Z,77.46
2018-02-10T16:51:15.963Z,77.77
2018-02-10T16:53:41.722Z,77.14
2018-02-10T16:56:07.516Z,76.84
2018-02-10T16:58:33.283Z,76.70
2018-02-10T17:00:59.143Z,76.31
2018-02-10T17:03:25.050Z,76.27
2018-02-10T17:05:50.804Z,76.78
2018-02-10T17:08:16.587Z,76.79
2018-02-10T17:10:42.359Z,76.71
2018-02-10T17:13:08.142Z,76.82
2018-02-10T17:15:33.893Z,77.14
2018-02-10T17:17:59.664Z,77.55
2018-02-10T17:20:25.410Z,77.46
2018-02-10T17:22:51.180Z,77.82
2018-02-10T17:25:16.944Z,78.07
2018-02-10T17:27:42.710Z,78.16
2018-02-10T17:30:08.465Z,78.27
2018-02-10T17:32:34.248Z,78.62
2018-02-10T17:34:59.990Z,78.96
2018-02-10T17:37:25.775Z,79.02
2018-02-10T17:39:51.534Z,79.19
2018-02-10T17:42:17.314Z,79.67
2018-02-10T17:44:43.068Z,79.56
2018-02-10T17:47:08.830Z,79.46
2018-02-10T17:49:34.596Z,79.97
2018-02-10T17:52:00.359Z,79.87
2018-02-10T17:54:26.122Z,79.92
2018-02-10T17:56:51.866Z,80.14
2018-02-10T17:59:17.638Z,80.49
2018-02-10T18:01:43.406Z,80.43
2018-02-10T18:04:09.171Z,80.67
2018-02-10T18:06:34.931Z,80.58
2018-02-10T18:09:00.716Z,80.69
2018-02-10T18:11:26.471Z,81.07
2018-02-10T18:13:52.272Z,81.22
2018-02-10T18:16:18.057Z,81.43
2018-02-10T18:18:43.798Z,81.43
2018-02-10T18:21:09.564Z,81.63
2018-02-10T18:23:35.326Z,81.90
2018-02-10T18:26:01.106Z,82.02
2018-02-10T18:28:26.861Z,82.40
2018-02-10T18:30:52.618Z,82.71
2018-02-10T18:33:18.376Z,82.69
2018-02-10T18:35:44.144Z,83.17
2018-02-10T18:38:09.894Z,83.39
2018-02-10T18:40:35.649Z,83.74
2018-02-10T18:43:01.395Z,83.99
2018-02-10T18:45:27.171Z,84.26
2018-02-10T18:47:52.923Z,84.47
2018-02-10T18:50:18.682Z,84.49
2018-02-10T18:52:44.469Z,84.99
2018-02-10T18:55:10.214Z,85.01
2018-02-10T18:57:35.961Z,85.24
2018-02-10T19:00:01.748Z,85.53
2018-02-10T19:02:27.488Z,85.75
2018-02-10T19:04:53.247Z,86.10
2018-02-10T19:07:18.994Z,86.07
2018-02-10T19:09:44.756Z,86.32
2018-02-10T19:12:10.507Z,86.65
2018-02-10T19:14:36.286Z,86.86
2018-02-10T19:17:02.036Z,86.89
2018-02-10T19:19:27.810Z,87.08
2018-02-10T19:21:53.569Z,87.17
2018-02-10T19:24:19.326Z,87.51
2018-02-10T19:26:45.089Z,87.62
2018-02-10T19:29:10.842Z,87.79
2018-02-10T19:31:36.615Z,88.04
2018-02-10T19:34:02.359Z,88.27
2018-02-10T19:36:28.127Z,88.28
2018-02-10T19:38:53.874Z,88.45
2018-02-10T19:41:19.643Z,88.42
2018-02-10T19:43:45.414Z,88.58
2018-02-10T19:46:11.182Z,88.95
2018-02-10T19:48:36.947Z,89.00
2018-02-10T19:51:02.708Z,89.17
2018-02-10T19:53:28.481Z,89.45
2018-02-10T19:55:54.239Z,89.52
2018-02-10T19:58:20.005Z,89.54
2018-02-10T20:00:45.758Z,89.58
2018-02-10T20:03:11.535Z,89.68
2018-02-10T20:05:37.282Z,89.65
2018-02-10T20:08:03.042Z,89.77
2018-02-10T20:10:28.798Z,89.91
2018-02-10T20:12:54.568Z,90.04
2018-02-10T20:15:20.418Z,90.29
2018-02-10T20:17:46.182Z,90.35
2018-02-10T20:20:11.934Z,90.42
2018-02-10T20:22:37.710Z,90.38
2018-02-10T20:25:03.470Z,90.43
2018-02-10T20:27:29.247Z,90.17
2018-02-10T20:29:54.993Z,90.73
2018-02-10T20:32:20.762Z,90.76
2018-02-10T20:34:46.523Z,90.97
2018-02-10T20:37:12.281Z,91.08
2018-02-10T20:39:38.064Z,91.22
2018-02-10T20:42:03.815Z,91.27
2018-02-10T20:44:29.594Z,91.46
2018-02-10T20:46:55.944Z,91.48
2018-02-10T20:49:21.714Z,91.36
2018-02-10T20:51:47.464Z,91.36
2018-02-10T20:54:13.226Z,91.37
2018-02-10T20:56:38.985Z,91.52
2018-02-10T20:59:04.751Z,91.29
2018-02-10T21:01:30.777Z,91.51
2018-02-10T21:03:56.546Z,91.47
2018-02-10T21:06:22.293Z,91.39
2018-02-10T21:08:48.062Z,91.18
2018-02-10T21:11:13.822Z,91.26
2018-02-10T21:13:39.603Z,91.29
2018-02-10T21:16:05.759Z,91.31
2018-02-10T21:18:31.512Z,91.37
2018-02-10T21:20:57.294Z,91.24
2018-02-10T21:23:23.035Z,91.20
2018-02-10T21:25:48.816Z,91.17
2018-02-10T21:28:14.572Z,90.91
2018-02-10T21:30:40.343Z,90.34
2018-02-10T21:33:06.102Z,90.60
2018-02-10T21:35:31.886Z,90.68
2018-02-10T21:37:57.631Z,90.77
2018-02-10T21:40:23.397Z,90.64
2018-02-10T21:42:49.166Z,90.88
2018-02-10T21:45:14.943Z,90.79
2018-02-10T21:47:40.693Z,91.05
2018-02-10T21:50:06.472Z,91.04
2018-02-10T21:52:32.219Z,90.90
2018-02-10T21:54:57.973Z,91.20
2018-02-10T21:57:23.755Z,90.77
2018-02-10T21:59:49.490Z,90.95
2018-02-10T22:02:15.249Z,91.25
2018-02-10T22:04:41.018Z,91.25
2018-02-10T22:07:06.778Z,91.06
2018-02-10T22:09:32.535Z,91.19
2018-02-10T22:11:58.303Z,91.29
2018-02-10T22:14:24.055Z,91.14
2018-02-10T22:16:49.819Z,91.22
2018-02-10T22:19:15.584Z,91.39
2018-02-10T22:21:41.346Z,91.29
2018-02-10T22:24:07.110Z,91.47
2018-02-10T22:26:32.898Z,91.34
2018-02-10T22:28:58.658Z,91.53
2018-02-10T22:31:24.510Z,91.60
2018-02-10T22:33:50.266Z,91.42
2018-02-10T22:36:16.014Z,91.51
2018-02-10T22:38:41.826Z,91.63
2018-02-10T22:41:07.582Z,91.61
2018-02-10T22:43:33.343Z,91.84
2018-02-10T22:45:59.102Z,91.97
2018-02-10T22:48:24.871Z,91.87
2018-02-10T22:50:50.631Z,92.10
2018-02-10T22:53:16.412Z,92.19
2018-02-10T22:55:42.158Z,92.06
2018-02-10T22:58:07.922Z,92.29
2018-02-10T23:00:33.698Z,92.39
2018-02-10T23:02:59.462Z,92.35
2018-02-10T23:05:25.235Z,92.45
2018-02-10T23:07:51.027Z,92.30
2018-02-10T23:10:16.778Z,92.57
2018-02-10T23:12:42.544Z,92.77
2018-02-10T23:15:08.301Z,92.70
2018-02-10T23:17:34.071Z,92.76
2018-02-10T23:19:59.823Z,92.79
2018-02-10T23:22:25.605Z,92.92
2018-02-10T23:24:51.355Z,92.96
2018-02-10T23:27:17.118Z,92.94
2018-02-10T23:29:42.883Z,92.94
2018-02-10T23:32:08.634Z,92.86
2018-02-10T23:34:34.401Z,92.97
2018-02-10T23:37:00.151Z,93.01
2018-02-10T23:39:25.958Z,93.03
2018-02-10T23:41:51.710Z,93.07
2018-02-10T23:44:17.484Z,93.06
2018-02-10T23:46:43.246Z,92.90
2018-02-10T23:49:09.044Z,93.08
2018-02-10T23:51:34.839Z,93.12
2018-02-10T23:54:00.610Z,93.15
2018-02-10T23:56:26.389Z,93.13
2018-02-10T23:58:52.152Z,93.45
